sensor_id;sensor_type;location;lat;lon;timestamp;temperature;humidity
57843;DHT22;43673;51.058;3.734;2023-07-31T00:01:00;18.30;99.90
57843;DHT22;43673;51.058;3.734;2023-07-31T00:03:26;18.30;99.90
57843;DHT22;43673;51.058;3.734;2023-07-31T00:05:52;18.30;99.90
57843;DHT22;43673;51.058;3.734;2023-07-31T00:08:18;18.20;99.90
57843;DHT22;43673;51.058;3.734;2023-07-31T00:10:43;18.30;99.90
57843;DHT22;43673;51.058;3.734;2023-07-31T00:13:09;18.30;99.90
57843;DHT22;43673;51.058;3.734;2023-07-31T00:15:35;18.20;99.90
57843;DHT22;43673;51.058;3.734;2023-07-31T00:18:01;18.20;99.90
57843;DHT22;43673;51.058;3.734;2023-07-31T00:20:26;18.30;99.90
57843;DHT22;43673;51.058;3.734;2023-07-31T00:22:52;18.30;99.90
57843;DHT22;43673;51.058;3.734;2023-07-31T00:25:18;18.30;99.90
57843;DHT22;43673;51.058;3.734;2023-07-31T00:27:43;18.30;99.90
57843;DHT22;43673;51.058;3.734;2023-07-31T00:30:14;18.30;99.90
57843;DHT22;43673;51.058;3.734;2023-07-31T00:32:40;18.40;99.90
57843;DHT22;43673;51.058;3.734;2023-07-31T00:35:06;18.20;99.90
57843;DHT22;43673;51.058;3.734;2023-07-31T00:37:31;18.20;99.90
57843;DHT22;43673;51.058;3.734;2023-07-31T00:39:57;18.30;99.90
57843;DHT22;43673;51.058;3.734;2023-07-31T00:42:24;18.30;99.90
57843;DHT22;43673;51.058;3.734;2023-07-31T00:44:49;18.30;99.90
57843;DHT22;43673;51.058;3.734;2023-07-31T00:47:15;18.30;99.90
57843;DHT22;43673;51.058;3.734;2023-07-31T00:49:41;18.30;99.90
57843;DHT22;43673;51.058;3.734;2023-07-31T00:52:08;18.30;99.90
57843;DHT22;43673;51.058;3.734;2023-07-31T00:54:34;18.40;99.90
57843;DHT22;43673;51.058;3.734;2023-07-31T00:57:00;18.30;99.90
57843;DHT22;43673;51.058;3.734;2023-07-31T00:59:25;18.30;99.90
57843;DHT22;43673;51.058;3.734;2023-07-31T01:01:51;18.40;99.90
57843;DHT22;43673;51.058;3.734;2023-07-31T01:04:18;18.40;99.90
57843;DHT22;43673;51.058;3.734;2023-07-31T01:07:02;18.30;99.90
57843;DHT22;43673;51.058;3.734;2023-07-31T01:12:27;18.40;99.90
57843;DHT22;43673;51.058;3.734;2023-07-31T01:17:30;18.40;99.90
57843;DHT22;43673;51.058;3.734;2023-07-31T01:20:02;18.50;99.90
57843;DHT22;43673;51.058;3.734;2023-07-31T01:31:24;18.40;99.90
57843;DHT22;43673;51.058;3.734;2023-07-31T01:33:53;18.50;99.90
57843;DHT22;43673;51.058;3.734;2023-07-31T01:36:19;18.50;99.90
57843;DHT22;43673;51.058;3.734;2023-07-31T01:38:45;18.50;99.90
57843;DHT22;43673;51.058;3.734;2023-07-31T01:41:11;18.50;99.90
57843;DHT22;43673;51.058;3.734;2023-07-31T01:43:37;18.40;99.90
57843;DHT22;43673;51.058;3.734;2023-07-31T01:46:02;18.40;99.90
57843;DHT22;43673;51.058;3.734;2023-07-31T01:48:28;18.40;99.90
57843;DHT22;43673;51.058;3.734;2023-07-31T01:50:56;18.50;99.90
57843;DHT22;43673;51.058;3.734;2023-07-31T01:53:25;18.50;99.90
57843;DHT22;43673;51.058;3.734;2023-07-31T01:55:51;18.50;99.90
57843;DHT22;43673;51.058;3.734;2023-07-31T01:58:17;18.50;99.90
57843;DHT22;43673;51.058;3.734;2023-07-31T02:00:42;18.40;99.90
57843;DHT22;43673;51.058;3.734;2023-07-31T02:03:08;18.40;99.90
57843;DHT22;43673;51.058;3.734;2023-07-31T02:05:34;18.40;99.90
57843;DHT22;43673;51.058;3.734;2023-07-31T02:07:59;18.40;99.90
57843;DHT22;43673;51.058;3.734;2023-07-31T02:10:25;18.40;99.90
57843;DHT22;43673;51.058;3.734;2023-07-31T02:12:51;18.40;99.90
57843;DHT22;43673;51.058;3.734;2023-07-31T02:15:17;18.50;99.90
57843;DHT22;43673;51.058;3.734;2023-07-31T02:17:42;18.50;99.90
57843;DHT22;43673;51.058;3.734;2023-07-31T02:20:08;18.50;99.90
57843;DHT22;43673;51.058;3.734;2023-07-31T02:22:34;18.60;99.90
57843;DHT22;43673;51.058;3.734;2023-07-31T02:25:00;18.60;99.90
57843;DHT22;43673;51.058;3.734;2023-07-31T02:27:26;18.60;99.90
57843;DHT22;43673;51.058;3.734;2023-07-31T02:29:53;18.60;99.90
57843;DHT22;43673;51.058;3.734;2023-07-31T02:32:19;18.60;99.90
57843;DHT22;43673;51.058;3.734;2023-07-31T02:34:45;18.60;99.90
57843;DHT22;43673;51.058;3.734;2023-07-31T02:37:11;18.70;99.90
57843;DHT22;43673;51.058;3.734;2023-07-31T02:39:36;18.70;99.90
57843;DHT22;43673;51.058;3.734;2023-07-31T02:42:02;18.60;99.90
57843;DHT22;43673;51.058;3.734;2023-07-31T02:44:28;18.60;99.90
57843;DHT22;43673;51.058;3.734;2023-07-31T02:46:54;18.60;99.90
57843;DHT22;43673;51.058;3.734;2023-07-31T02:49:19;18.60;99.90
57843;DHT22;43673;51.058;3.734;2023-07-31T02:51:45;18.60;99.90
57843;DHT22;43673;51.058;3.734;2023-07-31T02:54:11;18.70;99.90
57843;DHT22;43673;51.058;3.734;2023-07-31T02:56:36;18.70;99.90
57843;DHT22;43673;51.058;3.734;2023-07-31T02:59:02;18.70;99.90
57843;DHT22;43673;51.058;3.734;2023-07-31T03:01:28;18.70;99.90
57843;DHT22;43673;51.058;3.734;2023-07-31T03:03:53;18.70;99.90
57843;DHT22;43673;51.058;3.734;2023-07-31T03:06:19;18.60;99.90
57843;DHT22;43673;51.058;3.734;2023-07-31T03:08:45;18.70;99.90
57843;DHT22;43673;51.058;3.734;2023-07-31T03:11:10;18.70;99.90
57843;DHT22;43673;51.058;3.734;2023-07-31T03:13:36;18.60;99.90
57843;DHT22;43673;51.058;3.734;2023-07-31T03:16:02;18.50;99.90
57843;DHT22;43673;51.058;3.734;2023-07-31T03:18:28;18.50;99.90
57843;DHT22;43673;51.058;3.734;2023-07-31T03:20:53;18.50;99.90
57843;DHT22;43673;51.058;3.734;2023-07-31T03:23:19;18.40;99.90
57843;DHT22;43673;51.058;3.734;2023-07-31T03:25:58;18.40;99.90
57843;DHT22;43673;51.058;3.734;2023-07-31T03:28:24;18.30;99.90
57843;DHT22;43673;51.058;3.734;2023-07-31T03:30:50;18.30;99.90
57843;DHT22;43673;51.058;3.734;2023-07-31T03:33:16;18.20;99.90
57843;DHT22;43673;51.058;3.734;2023-07-31T03:35:41;18.20;99.90
57843;DHT22;43673;51.058;3.734;2023-07-31T03:38:07;18.20;99.90
57843;DHT22;43673;51.058;3.734;2023-07-31T03:40:33;18.10;99.90
57843;DHT22;43673;51.058;3.734;2023-07-31T03:42:59;18.10;99.90
57843;DHT22;43673;51.058;3.734;2023-07-31T03:45:24;18.10;99.90
57843;DHT22;43673;51.058;3.734;2023-07-31T03:47:50;18.10;99.90
57843;DHT22;43673;51.058;3.734;2023-07-31T03:50:16;18.10;99.90
57843;DHT22;43673;51.058;3.734;2023-07-31T03:52:42;18.10;99.90
57843;DHT22;43673;51.058;3.734;2023-07-31T03:55:08;18.10;99.90
57843;DHT22;43673;51.058;3.734;2023-07-31T03:57:33;18.00;99.90
57843;DHT22;43673;51.058;3.734;2023-07-31T03:59:59;18.00;99.90
57843;DHT22;43673;51.058;3.734;2023-07-31T04:02:25;18.00;99.90
57843;DHT22;43673;51.058;3.734;2023-07-31T04:04:50;18.10;99.90
57843;DHT22;43673;51.058;3.734;2023-07-31T04:07:16;18.10;99.90
57843;DHT22;43673;51.058;3.734;2023-07-31T04:09:42;18.10;99.90
57843;DHT22;43673;51.058;3.734;2023-07-31T04:12:08;18.10;99.90
57843;DHT22;43673;51.058;3.734;2023-07-31T04:14:33;18.10;99.90
57843;DHT22;43673;51.058;3.734;2023-07-31T04:16:59;18.10;99.90
57843;DHT22;43673;51.058;3.734;2023-07-31T04:19:25;18.00;99.90
57843;DHT22;43673;51.058;3.734;2023-07-31T04:21:50;18.00;99.90
57843;DHT22;43673;51.058;3.734;2023-07-31T04:24:16;18.00;99.90
57843;DHT22;43673;51.058;3.734;2023-07-31T04:26:47;17.90;99.90
57843;DHT22;43673;51.058;3.734;2023-07-31T04:29:13;17.90;99.90
57843;DHT22;43673;51.058;3.734;2023-07-31T04:31:38;17.90;99.90
57843;DHT22;43673;51.058;3.734;2023-07-31T04:34:04;17.90;99.90
57843;DHT22;43673;51.058;3.734;2023-07-31T04:36:30;17.90;99.90
57843;DHT22;43673;51.058;3.734;2023-07-31T04:38:56;18.00;99.90
57843;DHT22;43673;51.058;3.734;2023-07-31T04:41:21;17.90;99.90
57843;DHT22;43673;51.058;3.734;2023-07-31T04:43:47;17.90;99.90
57843;DHT22;43673;51.058;3.734;2023-07-31T04:46:13;17.90;99.90
57843;DHT22;43673;51.058;3.734;2023-07-31T04:48:38;17.90;99.90
57843;DHT22;43673;51.058;3.734;2023-07-31T04:51:04;17.80;99.90
57843;DHT22;43673;51.058;3.734;2023-07-31T04:53:30;17.80;99.90
57843;DHT22;43673;51.058;3.734;2023-07-31T04:55:55;17.80;99.90
57843;DHT22;43673;51.058;3.734;2023-07-31T04:58:21;17.80;99.90
57843;DHT22;43673;51.058;3.734;2023-07-31T05:00:47;17.80;99.90
57843;DHT22;43673;51.058;3.734;2023-07-31T05:03:12;17.80;99.90
57843;DHT22;43673;51.058;3.734;2023-07-31T05:05:38;17.70;99.90
57843;DHT22;43673;51.058;3.734;2023-07-31T05:08:04;17.70;99.90
57843;DHT22;43673;51.058;3.734;2023-07-31T05:10:29;17.70;99.90
57843;DHT22;43673;51.058;3.734;2023-07-31T05:12:55;17.70;99.90
57843;DHT22;43673;51.058;3.734;2023-07-31T05:15:21;17.80;99.90
57843;DHT22;43673;51.058;3.734;2023-07-31T05:17:46;17.80;99.90
57843;DHT22;43673;51.058;3.734;2023-07-31T05:20:12;17.90;99.90
57843;DHT22;43673;51.058;3.734;2023-07-31T05:22:38;17.90;99.90
57843;DHT22;43673;51.058;3.734;2023-07-31T05:25:04;18.00;99.90
57843;DHT22;43673;51.058;3.734;2023-07-31T05:27:30;18.00;99.90
57843;DHT22;43673;51.058;3.734;2023-07-31T05:29:56;18.10;99.90
57843;DHT22;43673;51.058;3.734;2023-07-31T05:32:22;18.10;99.90
57843;DHT22;43673;51.058;3.734;2023-07-31T05:34:51;18.10;99.90
57843;DHT22;43673;51.058;3.734;2023-07-31T05:37:17;18.20;99.90
57843;DHT22;43673;51.058;3.734;2023-07-31T05:39:43;18.20;99.90
57843;DHT22;43673;51.058;3.734;2023-07-31T05:42:08;18.20;99.90
57843;DHT22;43673;51.058;3.734;2023-07-31T05:44:34;18.10;99.90
57843;DHT22;43673;51.058;3.734;2023-07-31T05:47:00;18.20;99.90
57843;DHT22;43673;51.058;3.734;2023-07-31T05:49:25;18.30;99.90
57843;DHT22;43673;51.058;3.734;2023-07-31T05:51:51;18.30;99.90
57843;DHT22;43673;51.058;3.734;2023-07-31T05:54:17;18.30;99.90
57843;DHT22;43673;51.058;3.734;2023-07-31T05:56:42;18.30;99.90
57843;DHT22;43673;51.058;3.734;2023-07-31T05:59:11;18.30;99.90
57843;DHT22;43673;51.058;3.734;2023-07-31T06:01:37;18.20;99.90
57843;DHT22;43673;51.058;3.734;2023-07-31T06:04:03;18.20;99.90
57843;DHT22;43673;51.058;3.734;2023-07-31T06:06:29;18.10;99.90
57843;DHT22;43673;51.058;3.734;2023-07-31T06:08:54;18.10;99.90
57843;DHT22;43673;51.058;3.734;2023-07-31T06:11:21;18.10;99.90
57843;DHT22;43673;51.058;3.734;2023-07-31T06:13:47;18.10;99.90
57843;DHT22;43673;51.058;3.734;2023-07-31T06:16:14;18.20;99.90
57843;DHT22;43673;51.058;3.734;2023-07-31T06:18:41;18.20;99.90
57843;DHT22;43673;51.058;3.734;2023-07-31T06:21:07;18.30;99.90
57843;DHT22;43673;51.058;3.734;2023-07-31T06:23:33;18.40;99.90
57843;DHT22;43673;51.058;3.734;2023-07-31T06:25:59;18.50;99.90
57843;DHT22;43673;51.058;3.734;2023-07-31T06:28:31;18.60;99.90
57843;DHT22;43673;51.058;3.734;2023-07-31T06:30:58;18.60;99.90
57843;DHT22;43673;51.058;3.734;2023-07-31T06:33:24;18.70;99.90
57843;DHT22;43673;51.058;3.734;2023-07-31T06:35:50;18.60;99.90
57843;DHT22;43673;51.058;3.734;2023-07-31T06:38:19;18.70;99.90
57843;DHT22;43673;51.058;3.734;2023-07-31T06:40:45;18.70;99.90
57843;DHT22;43673;51.058;3.734;2023-07-31T06:43:10;18.80;99.90
57843;DHT22;43673;51.058;3.734;2023-07-31T06:45:37;18.80;99.90
57843;DHT22;43673;51.058;3.734;2023-07-31T06:48:06;18.90;99.90
57843;DHT22;43673;51.058;3.734;2023-07-31T06:50:33;18.90;99.90
57843;DHT22;43673;51.058;3.734;2023-07-31T06:52:58;18.80;99.90
57843;DHT22;43673;51.058;3.734;2023-07-31T06:55:25;18.80;99.90
57843;DHT22;43673;51.058;3.734;2023-07-31T06:57:53;18.80;99.90
57843;DHT22;43673;51.058;3.734;2023-07-31T07:00:20;18.80;99.90
57843;DHT22;43673;51.058;3.734;2023-07-31T07:02:46;18.80;99.90
57843;DHT22;43673;51.058;3.734;2023-07-31T07:05:16;18.80;99.90
57843;DHT22;43673;51.058;3.734;2023-07-31T07:07:42;18.90;99.90
57843;DHT22;43673;51.058;3.734;2023-07-31T07:10:08;19.00;99.90
57843;DHT22;43673;51.058;3.734;2023-07-31T07:12:34;19.00;99.90
57843;DHT22;43673;51.058;3.734;2023-07-31T07:15:01;19.00;99.90
57843;DHT22;43673;51.058;3.734;2023-07-31T07:17:29;19.00;99.90
57843;DHT22;43673;51.058;3.734;2023-07-31T07:19:58;19.10;99.90
57843;DHT22;43673;51.058;3.734;2023-07-31T07:22:24;19.20;99.90
57843;DHT22;43673;51.058;3.734;2023-07-31T07:24:51;19.30;99.90
57843;DHT22;43673;51.058;3.734;2023-07-31T07:27:17;19.40;99.90
57843;DHT22;43673;51.058;3.734;2023-07-31T07:29:42;19.50;99.90
57843;DHT22;43673;51.058;3.734;2023-07-31T07:32:08;19.70;99.90
57843;DHT22;43673;51.058;3.734;2023-07-31T07:34:34;19.80;99.90
57843;DHT22;43673;51.058;3.734;2023-07-31T07:37:00;19.60;99.90
57843;DHT22;43673;51.058;3.734;2023-07-31T07:39:25;19.80;99.90
57843;DHT22;43673;51.058;3.734;2023-07-31T07:41:51;19.60;99.90
57843;DHT22;43673;51.058;3.734;2023-07-31T07:44:18;19.40;99.90
57843;DHT22;43673;51.058;3.734;2023-07-31T07:46:44;19.50;99.90
57843;DHT22;43673;51.058;3.734;2023-07-31T07:49:10;19.50;99.90
57843;DHT22;43673;51.058;3.734;2023-07-31T07:51:35;19.50;99.90
57843;DHT22;43673;51.058;3.734;2023-07-31T07:54:02;19.60;99.90
57843;DHT22;43673;51.058;3.734;2023-07-31T07:56:28;19.60;99.90
57843;DHT22;43673;51.058;3.734;2023-07-31T07:58:54;19.60;99.90
57843;DHT22;43673;51.058;3.734;2023-07-31T08:01:20;19.70;99.90
57843;DHT22;43673;51.058;3.734;2023-07-31T08:03:50;19.80;99.90
57843;DHT22;43673;51.058;3.734;2023-07-31T08:06:15;19.90;99.90
57843;DHT22;43673;51.058;3.734;2023-07-31T08:08:41;20.00;99.90
57843;DHT22;43673;51.058;3.734;2023-07-31T08:11:07;20.00;99.90
57843;DHT22;43673;51.058;3.734;2023-07-31T08:13:33;20.10;99.90
57843;DHT22;43673;51.058;3.734;2023-07-31T08:15:59;20.30;99.90
57843;DHT22;43673;51.058;3.734;2023-07-31T08:18:24;20.50;99.90
57843;DHT22;43673;51.058;3.734;2023-07-31T08:20:50;20.50;99.90
57843;DHT22;43673;51.058;3.734;2023-07-31T08:23:16;20.40;99.90
57843;DHT22;43673;51.058;3.734;2023-07-31T08:25:41;20.50;99.90
57843;DHT22;43673;51.058;3.734;2023-07-31T08:28:07;20.60;99.90
57843;DHT22;43673;51.058;3.734;2023-07-31T08:30:33;20.40;99.90
57843;DHT22;43673;51.058;3.734;2023-07-31T08:32:59;20.30;99.90
57843;DHT22;43673;51.058;3.734;2023-07-31T08:35:26;20.40;99.90
57843;DHT22;43673;51.058;3.734;2023-07-31T08:37:55;20.40;99.90
57843;DHT22;43673;51.058;3.734;2023-07-31T08:40:21;20.60;99.90
57843;DHT22;43673;51.058;3.734;2023-07-31T08:42:52;20.80;99.90
57843;DHT22;43673;51.058;3.734;2023-07-31T08:45:19;21.00;99.90
57843;DHT22;43673;51.058;3.734;2023-07-31T08:47:50;21.10;99.90
57843;DHT22;43673;51.058;3.734;2023-07-31T08:50:19;21.00;99.90
57843;DHT22;43673;51.058;3.734;2023-07-31T08:52:49;20.90;99.90
57843;DHT22;43673;51.058;3.734;2023-07-31T08:55:15;21.20;99.90
57843;DHT22;43673;51.058;3.734;2023-07-31T08:57:42;21.20;99.90
57843;DHT22;43673;51.058;3.734;2023-07-31T09:00:09;21.10;99.90
57843;DHT22;43673;51.058;3.734;2023-07-31T09:02:59;21.20;99.90
57843;DHT22;43673;51.058;3.734;2023-07-31T09:05:29;21.10;99.90
57843;DHT22;43673;51.058;3.734;2023-07-31T09:07:56;20.90;99.90
57843;DHT22;43673;51.058;3.734;2023-07-31T09:10:22;21.00;99.90
57843;DHT22;43673;51.058;3.734;2023-07-31T09:12:49;21.10;99.90
57843;DHT22;43673;51.058;3.734;2023-07-31T09:15:16;20.70;99.90
57843;DHT22;43673;51.058;3.734;2023-07-31T09:17:42;20.70;99.90
57843;DHT22;43673;51.058;3.734;2023-07-31T09:22:45;20.80;99.90
57843;DHT22;43673;51.058;3.734;2023-07-31T09:25:18;20.90;99.90
57843;DHT22;43673;51.058;3.734;2023-07-31T09:27:59;21.10;99.90
57843;DHT22;43673;51.058;3.734;2023-07-31T09:30:25;21.00;99.90
57843;DHT22;43673;51.058;3.734;2023-07-31T09:33:00;21.00;99.90
57843;DHT22;43673;51.058;3.734;2023-07-31T09:35:31;20.80;99.90
57843;DHT22;43673;51.058;3.734;2023-07-31T09:37:59;20.60;99.90
57843;DHT22;43673;51.058;3.734;2023-07-31T09:40:29;20.70;99.90
57843;DHT22;43673;51.058;3.734;2023-07-31T09:43:00;20.70;99.90
57843;DHT22;43673;51.058;3.734;2023-07-31T09:45:26;20.70;99.90
57843;DHT22;43673;51.058;3.734;2023-07-31T09:47:53;20.80;99.90
57843;DHT22;43673;51.058;3.734;2023-07-31T09:50:24;20.90;99.90
57843;DHT22;43673;51.058;3.734;2023-07-31T09:52:51;21.20;99.90
57843;DHT22;43673;51.058;3.734;2023-07-31T09:55:17;21.10;99.90
57843;DHT22;43673;51.058;3.734;2023-07-31T09:57:48;21.10;99.90
57843;DHT22;43673;51.058;3.734;2023-07-31T10:00:16;21.20;99.90
57843;DHT22;43673;51.058;3.734;2023-07-31T10:02:46;21.40;99.90
57843;DHT22;43673;51.058;3.734;2023-07-31T10:05:14;21.40;99.90
57843;DHT22;43673;51.058;3.734;2023-07-31T10:07:54;21.50;99.90
57843;DHT22;43673;51.058;3.734;2023-07-31T10:10:21;21.60;99.90
57843;DHT22;43673;51.058;3.734;2023-07-31T10:12:52;21.70;99.90
57843;DHT22;43673;51.058;3.734;2023-07-31T10:15:19;21.70;99.90
57843;DHT22;43673;51.058;3.734;2023-07-31T10:17:47;21.70;99.90
57843;DHT22;43673;51.058;3.734;2023-07-31T10:20:14;21.50;99.90
57843;DHT22;43673;51.058;3.734;2023-07-31T10:22:45;21.20;99.90
57843;DHT22;43673;51.058;3.734;2023-07-31T10:25:15;21.10;99.90
57843;DHT22;43673;51.058;3.734;2023-07-31T10:27:42;21.00;99.90
57843;DHT22;43673;51.058;3.734;2023-07-31T10:30:12;20.80;99.90
57843;DHT22;43673;51.058;3.734;2023-07-31T10:32:41;20.60;99.90
57843;DHT22;43673;51.058;3.734;2023-07-31T10:35:08;20.70;99.90
57843;DHT22;43673;51.058;3.734;2023-07-31T10:37:39;20.80;99.90
57843;DHT22;43673;51.058;3.734;2023-07-31T10:40:16;20.80;99.90
57843;DHT22;43673;51.058;3.734;2023-07-31T10:42:49;20.90;99.90
57843;DHT22;43673;51.058;3.734;2023-07-31T10:45:25;21.00;99.90
57843;DHT22;43673;51.058;3.734;2023-07-31T10:48:05;21.10;99.90
57843;DHT22;43673;51.058;3.734;2023-07-31T10:50:36;21.30;99.90
57843;DHT22;43673;51.058;3.734;2023-07-31T10:53:02;21.50;99.90
57843;DHT22;43673;51.058;3.734;2023-07-31T10:55:40;21.70;99.90
57843;DHT22;43673;51.058;3.734;2023-07-31T10:58:13;21.70;99.90
57843;DHT22;43673;51.058;3.734;2023-07-31T11:00:58;22.00;99.90
57843;DHT22;43673;51.058;3.734;2023-07-31T11:03:41;22.10;99.90
57843;DHT22;43673;51.058;3.734;2023-07-31T11:06:08;22.10;99.90
57843;DHT22;43673;51.058;3.734;2023-07-31T11:08:35;21.90;99.90
57843;DHT22;43673;51.058;3.734;2023-07-31T11:11:08;22.10;99.90
57843;DHT22;43673;51.058;3.734;2023-07-31T11:13:44;22.10;99.90
57843;DHT22;43673;51.058;3.734;2023-07-31T11:16:13;22.30;99.90
57843;DHT22;43673;51.058;3.734;2023-07-31T11:18:40;22.50;99.90
57843;DHT22;43673;51.058;3.734;2023-07-31T11:21:12;22.70;99.90
57843;DHT22;43673;51.058;3.734;2023-07-31T11:23:39;22.60;99.90
57843;DHT22;43673;51.058;3.734;2023-07-31T11:26:06;22.50;99.90
57843;DHT22;43673;51.058;3.734;2023-07-31T11:28:33;22.40;99.90
57843;DHT22;43673;51.058;3.734;2023-07-31T11:31:00;22.40;99.90
57843;DHT22;43673;51.058;3.734;2023-07-31T11:33:26;22.30;99.90
57843;DHT22;43673;51.058;3.734;2023-07-31T11:35:51;22.30;99.90
57843;DHT22;43673;51.058;3.734;2023-07-31T11:38:29;22.20;99.90
57843;DHT22;43673;51.058;3.734;2023-07-31T11:41:02;22.40;99.90
57843;DHT22;43673;51.058;3.734;2023-07-31T11:43:29;22.60;99.90
57843;DHT22;43673;51.058;3.734;2023-07-31T11:45:56;22.50;99.90
57843;DHT22;43673;51.058;3.734;2023-07-31T11:48:26;22.80;99.90
57843;DHT22;43673;51.058;3.734;2023-07-31T11:50:54;23.00;99.90
57843;DHT22;43673;51.058;3.734;2023-07-31T11:53:37;23.30;99.90
57843;DHT22;43673;51.058;3.734;2023-07-31T11:56:04;23.10;99.90
57843;DHT22;43673;51.058;3.734;2023-07-31T11:58:32;23.10;99.90
57843;DHT22;43673;51.058;3.734;2023-07-31T12:00:58;22.70;99.90
57843;DHT22;43673;51.058;3.734;2023-07-31T12:03:25;22.60;99.90
57843;DHT22;43673;51.058;3.734;2023-07-31T12:05:53;22.40;99.90
57843;DHT22;43673;51.058;3.734;2023-07-31T12:08:23;22.40;99.90
57843;DHT22;43673;51.058;3.734;2023-07-31T12:11:04;22.30;99.90
57843;DHT22;43673;51.058;3.734;2023-07-31T12:13:35;22.30;99.90
57843;DHT22;43673;51.058;3.734;2023-07-31T12:16:03;22.30;99.90
57843;DHT22;43673;51.058;3.734;2023-07-31T12:18:33;22.10;99.90
57843;DHT22;43673;51.058;3.734;2023-07-31T12:21:01;22.10;99.90
57843;DHT22;43673;51.058;3.734;2023-07-31T12:23:29;22.10;99.90
57843;DHT22;43673;51.058;3.734;2023-07-31T12:31:06;22.20;99.90
57843;DHT22;43673;51.058;3.734;2023-07-31T12:33:34;21.90;99.90
57843;DHT22;43673;51.058;3.734;2023-07-31T12:36:03;21.70;99.90
57843;DHT22;43673;51.058;3.734;2023-07-31T12:38:33;21.40;99.90
57843;DHT22;43673;51.058;3.734;2023-07-31T12:40:59;21.20;99.90
57843;DHT22;43673;51.058;3.734;2023-07-31T12:43:25;21.10;99.90
57843;DHT22;43673;51.058;3.734;2023-07-31T12:45:51;20.90;99.90
57843;DHT22;43673;51.058;3.734;2023-07-31T12:48:17;20.80;99.90
57843;DHT22;43673;51.058;3.734;2023-07-31T12:50:43;20.70;99.90
57843;DHT22;43673;51.058;3.734;2023-07-31T12:53:08;20.40;99.90
57843;DHT22;43673;51.058;3.734;2023-07-31T12:55:43;20.40;99.90
57843;DHT22;43673;51.058;3.734;2023-07-31T12:58:09;20.30;99.90
57843;DHT22;43673;51.058;3.734;2023-07-31T13:00:35;20.20;99.90
57843;DHT22;43673;51.058;3.734;2023-07-31T13:03:01;20.10;99.90
57843;DHT22;43673;51.058;3.734;2023-07-31T13:05:28;20.10;99.90
57843;DHT22;43673;51.058;3.734;2023-07-31T13:08:04;20.30;99.90
57843;DHT22;43673;51.058;3.734;2023-07-31T13:10:30;20.10;99.90
57843;DHT22;43673;51.058;3.734;2023-07-31T13:12:59;20.10;99.90
57843;DHT22;43673;51.058;3.734;2023-07-31T13:15:25;20.20;99.90
57843;DHT22;43673;51.058;3.734;2023-07-31T13:17:51;20.10;99.90
57843;DHT22;43673;51.058;3.734;2023-07-31T13:20:20;20.00;99.90
57843;DHT22;43673;51.058;3.734;2023-07-31T13:22:48;19.90;99.90
57843;DHT22;43673;51.058;3.734;2023-07-31T13:25:19;20.00;99.90
57843;DHT22;43673;51.058;3.734;2023-07-31T13:27:45;19.70;99.90
57843;DHT22;43673;51.058;3.734;2023-07-31T13:30:11;19.60;99.90
57843;DHT22;43673;51.058;3.734;2023-07-31T13:32:37;19.60;99.90
57843;DHT22;43673;51.058;3.734;2023-07-31T13:35:08;19.40;99.90
57843;DHT22;43673;51.058;3.734;2023-07-31T13:37:35;19.30;99.90
57843;DHT22;43673;51.058;3.734;2023-07-31T13:40:00;19.30;99.90
57843;DHT22;43673;51.058;3.734;2023-07-31T13:42:26;19.30;99.90
57843;DHT22;43673;51.058;3.734;2023-07-31T13:44:53;19.20;99.90
57843;DHT22;43673;51.058;3.734;2023-07-31T13:47:21;19.30;99.90
57843;DHT22;43673;51.058;3.734;2023-07-31T13:49:47;19.30;99.90
57843;DHT22;43673;51.058;3.734;2023-07-31T13:52:13;19.30;99.90
57843;DHT22;43673;51.058;3.734;2023-07-31T13:54:38;19.40;99.90
57843;DHT22;43673;51.058;3.734;2023-07-31T13:57:04;19.50;99.90
57843;DHT22;43673;51.058;3.734;2023-07-31T13:59:30;19.50;99.90
57843;DHT22;43673;51.058;3.734;2023-07-31T14:01:56;19.50;99.90
57843;DHT22;43673;51.058;3.734;2023-07-31T14:04:21;19.50;99.90
57843;DHT22;43673;51.058;3.734;2023-07-31T14:06:47;19.50;99.90
57843;DHT22;43673;51.058;3.734;2023-07-31T14:09:15;19.50;99.90
57843;DHT22;43673;51.058;3.734;2023-07-31T14:11:42;19.40;99.90
57843;DHT22;43673;51.058;3.734;2023-07-31T14:14:09;19.40;99.90
57843;DHT22;43673;51.058;3.734;2023-07-31T14:16:35;19.50;99.90
57843;DHT22;43673;51.058;3.734;2023-07-31T14:19:01;19.60;99.90
57843;DHT22;43673;51.058;3.734;2023-07-31T14:21:27;19.60;99.90
57843;DHT22;43673;51.058;3.734;2023-07-31T14:23:53;19.60;99.90
57843;DHT22;43673;51.058;3.734;2023-07-31T14:26:18;19.50;99.90
57843;DHT22;43673;51.058;3.734;2023-07-31T14:28:44;19.50;99.90
57843;DHT22;43673;51.058;3.734;2023-07-31T14:31:10;19.50;99.90
57843;DHT22;43673;51.058;3.734;2023-07-31T14:33:36;19.50;99.90
57843;DHT22;43673;51.058;3.734;2023-07-31T14:36:02;19.50;99.90
57843;DHT22;43673;51.058;3.734;2023-07-31T14:38:27;19.40;99.90
57843;DHT22;43673;51.058;3.734;2023-07-31T14:40:53;19.40;99.90
57843;DHT22;43673;51.058;3.734;2023-07-31T14:43:19;19.40;99.90
57843;DHT22;43673;51.058;3.734;2023-07-31T14:45:44;19.40;99.90
57843;DHT22;43673;51.058;3.734;2023-07-31T14:48:12;19.40;99.90
57843;DHT22;43673;51.058;3.734;2023-07-31T14:50:37;19.50;99.90
57843;DHT22;43673;51.058;3.734;2023-07-31T14:53:03;19.50;99.90
57843;DHT22;43673;51.058;3.734;2023-07-31T14:55:29;19.60;99.90
57843;DHT22;43673;51.058;3.734;2023-07-31T14:57:55;19.50;99.90
57843;DHT22;43673;51.058;3.734;2023-07-31T15:00:20;19.60;99.90
57843;DHT22;43673;51.058;3.734;2023-07-31T15:02:46;19.60;99.90
57843;DHT22;43673;51.058;3.734;2023-07-31T15:05:12;19.50;99.90
57843;DHT22;43673;51.058;3.734;2023-07-31T15:07:38;19.40;99.90
57843;DHT22;43673;51.058;3.734;2023-07-31T15:10:04;19.50;99.90
57843;DHT22;43673;51.058;3.734;2023-07-31T15:12:32;19.40;99.90
57843;DHT22;43673;51.058;3.734;2023-07-31T15:14:58;19.50;99.90
57843;DHT22;43673;51.058;3.734;2023-07-31T15:17:24;19.40;99.90
57843;DHT22;43673;51.058;3.734;2023-07-31T15:19:50;19.50;99.90
57843;DHT22;43673;51.058;3.734;2023-07-31T15:22:15;19.40;99.90
57843;DHT22;43673;51.058;3.734;2023-07-31T15:24:41;19.30;99.90
57843;DHT22;43673;51.058;3.734;2023-07-31T15:27:07;19.30;99.90
57843;DHT22;43673;51.058;3.734;2023-07-31T15:29:34;19.30;99.90
57843;DHT22;43673;51.058;3.734;2023-07-31T15:32:03;19.40;99.90
57843;DHT22;43673;51.058;3.734;2023-07-31T15:34:30;19.20;99.90
57843;DHT22;43673;51.058;3.734;2023-07-31T15:36:55;19.30;99.90
57843;DHT22;43673;51.058;3.734;2023-07-31T15:39:21;19.30;99.90
57843;DHT22;43673;51.058;3.734;2023-07-31T15:41:47;19.30;99.90
57843;DHT22;43673;51.058;3.734;2023-07-31T15:44:12;19.30;99.90
57843;DHT22;43673;51.058;3.734;2023-07-31T15:46:39;19.30;99.90
57843;DHT22;43673;51.058;3.734;2023-07-31T15:49:04;19.40;99.90
57843;DHT22;43673;51.058;3.734;2023-07-31T15:51:30;19.40;99.90